sensor_id;sensor_type;location;lat;lon;timestamp;P1;durP1;ratioP1;P2;durP2;ratioP2
20880;SDS011;10600;53.096;8.802;2023-09-19T00:00:32;10.65;;;4.82;;
20880;SDS011;10600;53.096;8.802;2023-09-19T00:01:33;10.85;;;5.25;;
20880;SDS011;10600;53.096;8.802;2023-09-19T00:02:34;10.95;;;4.30;;
20880;SDS011;10600;53.096;8.802;2023-09-19T00:03:36;8.55;;;4.18;;
20880;SDS011;10600;53.096;8.802;2023-09-19T00:04:38;6.13;;;4.28;;
20880;SDS011;10600;53.096;8.802;2023-09-19T00:05:39;11.40;;;4.38;;
20880;SDS011;10600;53.096;8.802;2023-09-19T00:06:44;6.68;;;4.70;;
20880;SDS011;10600;53.096;8.802;2023-09-19T00:07:45;10.35;;;5.00;;
20880;SDS011;10600;53.096;8.802;2023-09-19T00:08:47;9.52;;;4.80;;
20880;SDS011;10600;53.096;8.802;2023-09-19T00:09:48;7.90;;;4.50;;
20880;SDS011;10600;53.096;8.802;2023-09-19T00:10:49;7.10;;;4.00;;
20880;SDS011;10600;53.096;8.802;2023-09-19T00:11:50;9.57;;;4.40;;
20880;SDS011;10600;53.096;8.802;2023-09-19T00:12:51;8.43;;;5.28;;
20880;SDS011;10600;53.096;8.802;2023-09-19T00:13:55;7.63;;;4.85;;
20880;SDS011;10600;53.096;8.802;2023-09-19T00:14:59;10.45;;;4.90;;
20880;SDS011;10600;53.096;8.802;2023-09-19T00:16:00;6.03;;;4.32;;
20880;SDS011;10600;53.096;8.802;2023-09-19T00:17:02;9.65;;;4.57;;
20880;SDS011;10600;53.096;8.802;2023-09-19T00:18:06;6.95;;;4.30;;
20880;SDS011;10600;53.096;8.802;2023-09-19T00:19:07;5.88;;;3.70;;
20880;SDS011;10600;53.096;8.802;2023-09-19T00:20:09;9.80;;;4.88;;
20880;SDS011;10600;53.096;8.802;2023-09-19T00:21:12;11.38;;;4.57;;
20880;SDS011;10600;53.096;8.802;2023-09-19T00:22:14;9.65;;;4.60;;
20880;SDS011;10600;53.096;8.802;2023-09-19T00:23:16;9.60;;;4.63;;
20880;SDS011;10600;53.096;8.802;2023-09-19T00:24:16;8.65;;;3.85;;
20880;SDS011;10600;53.096;8.802;2023-09-19T00:25:19;6.35;;;4.00;;
20880;SDS011;10600;53.096;8.802;2023-09-19T00:26:20;8.95;;;5.15;;
20880;SDS011;10600;53.096;8.802;2023-09-19T00:27:21;11.65;;;4.88;;
20880;SDS011;10600;53.096;8.802;2023-09-19T00:28:22;8.52;;;4.40;;
20880;SDS011;10600;53.096;8.802;2023-09-19T00:29:23;10.57;;;4.80;;
20880;SDS011;10600;53.096;8.802;2023-09-19T00:30:24;11.95;;;4.35;;
20880;SDS011;10600;53.096;8.802;2023-09-19T00:31:25;9.68;;;4.68;;
20880;SDS011;10600;53.096;8.802;2023-09-19T00:32:26;11.68;;;5.45;;
20880;SDS011;10600;53.096;8.802;2023-09-19T00:33:32;6.03;;;4.57;;
20880;SDS011;10600;53.096;8.802;2023-09-19T00:34:34;7.53;;;4.20;;
20880;SDS011;10600;53.096;8.802;2023-09-19T00:35:35;7.53;;;4.13;;
20880;SDS011;10600;53.096;8.802;2023-09-19T00:36:37;6.88;;;4.13;;
20880;SDS011;10600;53.096;8.802;2023-09-19T00:37:43;12.57;;;4.60;;
20880;SDS011;10600;53.096;8.802;2023-09-19T00:38:44;9.18;;;4.72;;
20880;SDS011;10600;53.096;8.802;2023-09-19T00:39:46;8.95;;;4.40;;
20880;SDS011;10600;53.096;8.802;2023-09-19T00:40:47;10.77;;;3.83;;
20880;SDS011;10600;53.096;8.802;2023-09-19T00:41:48;9.63;;;4.57;;
20880;SDS011;10600;53.096;8.802;2023-09-19T00:42:50;7.35;;;4.47;;
20880;SDS011;10600;53.096;8.802;2023-09-19T00:43:51;6.10;;;4.13;;
20880;SDS011;10600;53.096;8.802;2023-09-19T00:44:52;9.48;;;4.70;;
20880;SDS011;10600;53.096;8.802;2023-09-19T00:45:54;11.32;;;4.30;;
20880;SDS011;10600;53.096;8.802;2023-09-19T00:46:55;9.65;;;3.78;;
20880;SDS011;10600;53.096;8.802;2023-09-19T00:47:56;9.77;;;3.97;;
20880;SDS011;10600;53.096;8.802;2023-09-19T00:48:57;8.75;;;4.25;;
20880;SDS011;10600;53.096;8.802;2023-09-19T00:49:59;7.57;;;4.05;;
20880;SDS011;10600;53.096;8.802;2023-09-19T00:51:02;9.60;;;3.90;;
20880;SDS011;10600;53.096;8.802;2023-09-19T00:52:05;9.82;;;3.63;;
20880;SDS011;10600;53.096;8.802;2023-09-19T00:53:06;9.52;;;3.58;;
20880;SDS011;10600;53.096;8.802;2023-09-19T00:54:08;5.45;;;3.70;;
20880;SDS011;10600;53.096;8.802;2023-09-19T00:55:10;7.68;;;4.10;;
20880;SDS011;10600;53.096;8.802;2023-09-19T00:56:14;6.90;;;3.90;;
20880;SDS011;10600;53.096;8.802;2023-09-19T00:57:18;8.88;;;4.07;;
20880;SDS011;10600;53.096;8.802;2023-09-19T00:58:19;7.43;;;4.30;;
20880;SDS011;10600;53.096;8.802;2023-09-19T00:59:20;11.30;;;4.05;;
20880;SDS011;10600;53.096;8.802;2023-09-19T01:00:22;9.48;;;3.92;;
20880;SDS011;10600;53.096;8.802;2023-09-19T01:01:24;8.45;;;3.88;;
20880;SDS011;10600;53.096;8.802;2023-09-19T01:02:25;6.55;;;3.63;;
20880;SDS011;10600;53.096;8.802;2023-09-19T01:03:28;7.95;;;3.70;;
20880;SDS011;10600;53.096;8.802;2023-09-19T01:04:29;9.35;;;3.55;;
20880;SDS011;10600;53.096;8.802;2023-09-19T01:05:30;10.18;;;3.85;;
20880;SDS011;10600;53.096;8.802;2023-09-19T01:06:32;8.30;;;3.80;;
20880;SDS011;10600;53.096;8.802;2023-09-19T01:07:33;6.75;;;3.50;;
20880;SDS011;10600;53.096;8.802;2023-09-19T01:08:34;5.22;;;3.40;;
20880;SDS011;10600;53.096;8.802;2023-09-19T01:09:36;6.55;;;3.90;;
20880;SDS011;10600;53.096;8.802;2023-09-19T01:10:41;8.27;;;3.38;;
20880;SDS011;10600;53.096;8.802;2023-09-19T01:11:45;8.48;;;4.15;;
20880;SDS011;10600;53.096;8.802;2023-09-19T01:13:50;6.65;;;3.58;;
20880;SDS011;10600;53.096;8.802;2023-09-19T01:14:59;10.13;;;4.63;;
20880;SDS011;10600;53.096;8.802;2023-09-19T01:16:19;6.35;;;3.38;;
20880;SDS011;10600;53.096;8.802;2023-09-19T01:17:29;7.88;;;3.35;;
20880;SDS011;10600;53.096;8.802;2023-09-19T01:18:38;9.48;;;3.80;;
20880;SDS011;10600;53.096;8.802;2023-09-19T01:20:57;7.72;;;3.90;;
20880;SDS011;10600;53.096;8.802;2023-09-19T01:22:13;8.52;;;3.55;;
20880;SDS011;10600;53.096;8.802;2023-09-19T01:23:23;7.90;;;3.80;;
20880;SDS011;10600;53.096;8.802;2023-09-19T01:28:11;8.60;;;4.50;;
20880;SDS011;10600;53.096;8.802;2023-09-19T01:30:33;10.88;;;4.05;;
20880;SDS011;10600;53.096;8.802;2023-09-19T01:31:39;6.82;;;3.67;;
20880;SDS011;10600;53.096;8.802;2023-09-19T01:32:41;10.68;;;3.78;;
20880;SDS011;10600;53.096;8.802;2023-09-19T01:33:59;8.60;;;3.47;;
20880;SDS011;10600;53.096;8.802;2023-09-19T01:35:00;9.48;;;3.60;;
20880;SDS011;10600;53.096;8.802;2023-09-19T01:36:04;7.15;;;3.17;;
20880;SDS011;10600;53.096;8.802;2023-09-19T01:37:05;4.90;;;2.58;;
20880;SDS011;10600;53.096;8.802;2023-09-19T01:38:06;5.97;;;2.28;;
20880;SDS011;10600;53.096;8.802;2023-09-19T01:39:11;9.45;;;2.97;;
20880;SDS011;10600;53.096;8.802;2023-09-19T01:40:14;3.78;;;2.53;;
20880;SDS011;10600;53.096;8.802;2023-09-19T01:41:17;6.10;;;1.83;;
20880;SDS011;10600;53.096;8.802;2023-09-19T01:42:41;3.95;;;2.15;;
20880;SDS011;10600;53.096;8.802;2023-09-19T01:43:43;3.38;;;1.95;;
20880;SDS011;10600;53.096;8.802;2023-09-19T01:45:54;7.13;;;2.20;;
20880;SDS011;10600;53.096;8.802;2023-09-19T01:46:58;2.22;;;1.58;;
20880;SDS011;10600;53.096;8.802;2023-09-19T01:48:05;2.95;;;2.08;;
20880;SDS011;10600;53.096;8.802;2023-09-19T01:50:31;4.35;;;1.90;;
20880;SDS011;10600;53.096;8.802;2023-09-19T01:51:41;4.57;;;1.98;;
20880;SDS011;10600;53.096;8.802;2023-09-19T01:52:48;3.10;;;1.67;;
20880;SDS011;10600;53.096;8.802;2023-09-19T01:55:01;4.93;;;2.20;;
20880;SDS011;10600;53.096;8.802;2023-09-19T01:56:07;4.68;;;1.80;;
20880;SDS011;10600;53.096;8.802;2023-09-19T01:57:22;4.70;;;1.90;;
20880;SDS011;10600;53.096;8.802;2023-09-19T01:58:35;2.33;;;2.13;;
20880;SDS011;10600;53.096;8.802;2023-09-19T01:59:41;6.82;;;2.00;;
20880;SDS011;10600;53.096;8.802;2023-09-19T02:00:44;4.13;;;1.85;;
20880;SDS011;10600;53.096;8.802;2023-09-19T02:01:45;4.65;;;1.77;;
20880;SDS011;10600;53.096;8.802;2023-09-19T02:02:46;5.40;;;1.80;;
20880;SDS011;10600;53.096;8.802;2023-09-19T02:03:48;6.20;;;2.00;;
20880;SDS011;10600;53.096;8.802;2023-09-19T02:04:49;3.33;;;1.52;;
20880;SDS011;10600;53.096;8.802;2023-09-19T02:05:50;1.90;;;1.58;;
20880;SDS011;10600;53.096;8.802;2023-09-19T02:06:53;4.40;;;1.90;;
20880;SDS011;10600;53.096;8.802;2023-09-19T02:07:55;3.78;;;1.90;;
20880;SDS011;10600;53.096;8.802;2023-09-19T02:08:56;3.60;;;1.95;;
20880;SDS011;10600;53.096;8.802;2023-09-19T02:09:59;4.40;;;1.60;;
20880;SDS011;10600;53.096;8.802;2023-09-19T02:11:00;3.42;;;1.80;;
20880;SDS011;10600;53.096;8.802;2023-09-19T02:12:02;5.97;;;1.60;;
20880;SDS011;10600;53.096;8.802;2023-09-19T02:13:03;5.07;;;1.88;;
20880;SDS011;10600;53.096;8.802;2023-09-19T02:14:05;5.60;;;1.60;;
20880;SDS011;10600;53.096;8.802;2023-09-19T02:15:08;3.08;;;1.70;;
20880;SDS011;10600;53.096;8.802;2023-09-19T02:16:09;4.25;;;2.25;;
20880;SDS011;10600;53.096;8.802;2023-09-19T02:17:11;5.13;;;1.70;;
20880;SDS011;10600;53.096;8.802;2023-09-19T02:18:12;3.30;;;1.48;;
20880;SDS011;10600;53.096;8.802;2023-09-19T02:19:14;6.63;;;1.88;;
20880;SDS011;10600;53.096;8.802;2023-09-19T02:20:15;4.63;;;1.70;;
20880;SDS011;10600;53.096;8.802;2023-09-19T02:21:17;4.07;;;1.50;;
20880;SDS011;10600;53.096;8.802;2023-09-19T02:22:18;3.70;;;1.58;;
20880;SDS011;10600;53.096;8.802;2023-09-19T02:23:19;4.78;;;1.35;;
20880;SDS011;10600;53.096;8.802;2023-09-19T02:24:20;4.10;;;1.55;;
20880;SDS011;10600;53.096;8.802;2023-09-19T02:25:21;5.55;;;1.80;;
20880;SDS011;10600;53.096;8.802;2023-09-19T02:26:22;4.85;;;1.65;;
20880;SDS011;10600;53.096;8.802;2023-09-19T02:27:23;3.72;;;1.73;;
20880;SDS011;10600;53.096;8.802;2023-09-19T02:28:24;6.13;;;1.67;;
20880;SDS011;10600;53.096;8.802;2023-09-19T02:29:30;3.25;;;1.50;;
20880;SDS011;10600;53.096;8.802;2023-09-19T02:30:31;3.97;;;1.58;;
20880;SDS011;10600;53.096;8.802;2023-09-19T02:31:32;4.13;;;1.65;;
20880;SDS011;10600;53.096;8.802;2023-09-19T02:32:33;4.10;;;1.50;;
20880;SDS011;10600;53.096;8.802;2023-09-19T02:33:38;5.68;;;1.60;;
20880;SDS011;10600;53.096;8.802;2023-09-19T02:34:39;6.57;;;1.90;;
20880;SDS011;10600;53.096;8.802;2023-09-19T02:35:41;4.40;;;1.75;;
20880;SDS011;10600;53.096;8.802;2023-09-19T02:36:42;5.30;;;1.70;;
20880;SDS011;10600;53.096;8.802;2023-09-19T02:37:45;6.45;;;1.80;;
20880;SDS011;10600;53.096;8.802;2023-09-19T02:38:46;5.75;;;1.80;;
20880;SDS011;10600;53.096;8.802;2023-09-19T02:39:47;6.28;;;1.73;;
20880;SDS011;10600;53.096;8.802;2023-09-19T02:40:48;11.30;;;2.10;;
20880;SDS011;10600;53.096;8.802;2023-09-19T02:41:49;4.63;;;1.75;;
20880;SDS011;10600;53.096;8.802;2023-09-19T02:42:52;7.45;;;2.22;;
20880;SDS011;10600;53.096;8.802;2023-09-19T02:43:53;5.57;;;1.60;;
20880;SDS011;10600;53.096;8.802;2023-09-19T02:44:54;7.10;;;2.75;;
20880;SDS011;10600;53.096;8.802;2023-09-19T02:45:56;8.40;;;1.92;;
20880;SDS011;10600;53.096;8.802;2023-09-19T02:46:57;5.60;;;2.22;;
20880;SDS011;10600;53.096;8.802;2023-09-19T02:47:58;4.13;;;2.08;;
20880;SDS011;10600;53.096;8.802;2023-09-19T02:49:00;5.35;;;1.50;;
20880;SDS011;10600;53.096;8.802;2023-09-19T02:50:01;4.45;;;1.73;;
20880;SDS011;10600;53.096;8.802;2023-09-19T02:51:02;4.88;;;2.05;;
20880;SDS011;10600;53.096;8.802;2023-09-19T02:52:03;3.38;;;1.80;;
20880;SDS011;10600;53.096;8.802;2023-09-19T02:53:05;4.18;;;2.03;;
20880;SDS011;10600;53.096;8.802;2023-09-19T02:54:07;9.98;;;2.17;;
20880;SDS011;10600;53.096;8.802;2023-09-19T02:55:08;4.75;;;1.92;;
20880;SDS011;10600;53.096;8.802;2023-09-19T02:56:09;5.35;;;2.00;;
20880;SDS011;10600;53.096;8.802;2023-09-19T02:57:13;6.95;;;2.55;;
20880;SDS011;10600;53.096;8.802;2023-09-19T02:58:16;8.13;;;2.00;;
20880;SDS011;10600;53.096;8.802;2023-09-19T02:59:18;4.88;;;1.70;;
20880;SDS011;10600;53.096;8.802;2023-09-19T03:00:19;5.35;;;2.20;;
20880;SDS011;10600;53.096;8.802;2023-09-19T03:01:21;6.18;;;1.98;;
20880;SDS011;10600;53.096;8.802;2023-09-19T03:02:22;7.93;;;2.40;;
20880;SDS011;10600;53.096;8.802;2023-09-19T03:03:24;7.20;;;2.10;;
20880;SDS011;10600;53.096;8.802;2023-09-19T03:04:29;4.63;;;2.05;;
20880;SDS011;10600;53.096;8.802;2023-09-19T03:05:31;9.00;;;2.08;;
20880;SDS011;10600;53.096;8.802;2023-09-19T03:06:32;8.75;;;2.40;;
20880;SDS011;10600;53.096;8.802;2023-09-19T03:07:33;7.90;;;2.00;;
20880;SDS011;10600;53.096;8.802;2023-09-19T03:08:35;11.43;;;2.67;;
20880;SDS011;10600;53.096;8.802;2023-09-19T03:09:36;8.02;;;2.38;;
20880;SDS011;10600;53.096;8.802;2023-09-19T03:10:37;6.75;;;2.30;;
20880;SDS011;10600;53.096;8.802;2023-09-19T03:11:38;6.43;;;2.50;;
20880;SDS011;10600;53.096;8.802;2023-09-19T03:12:40;9.52;;;2.25;;
20880;SDS011;10600;53.096;8.802;2023-09-19T03:13:41;12.10;;;3.25;;
20880;SDS011;10600;53.096;8.802;2023-09-19T03:14:44;7.35;;;2.17;;
20880;SDS011;10600;53.096;8.802;2023-09-19T03:15:45;6.35;;;2.40;;
20880;SDS011;10600;53.096;8.802;2023-09-19T03:16:50;8.15;;;1.70;;
20880;SDS011;10600;53.096;8.802;2023-09-19T03:17:52;6.28;;;2.63;;
20880;SDS011;10600;53.096;8.802;2023-09-19T03:18:53;12.98;;;2.70;;
20880;SDS011;10600;53.096;8.802;2023-09-19T03:19:54;7.88;;;2.30;;
20880;SDS011;10600;53.096;8.802;2023-09-19T03:20:57;12.18;;;2.63;;
20880;SDS011;10600;53.096;8.802;2023-09-19T03:22:01;5.88;;;2.30;;
20880;SDS011;10600;53.096;8.802;2023-09-19T03:23:03;5.43;;;2.25;;
20880;SDS011;10600;53.096;8.802;2023-09-19T03:24:06;8.30;;;2.72;;
20880;SDS011;10600;53.096;8.802;2023-09-19T03:25:07;7.00;;;2.17;;
20880;SDS011;10600;53.096;8.802;2023-09-19T03:26:08;4.18;;;2.17;;
20880;SDS011;10600;53.096;8.802;2023-09-19T03:27:09;8.60;;;2.28;;
20880;SDS011;10600;53.096;8.802;2023-09-19T03:28:10;11.25;;;2.75;;
20880;SDS011;10600;53.096;8.802;2023-09-19T03:29:11;8.27;;;2.45;;
20880;SDS011;10600;53.096;8.802;2023-09-19T03:30:14;8.63;;;2.78;;
20880;SDS011;10600;53.096;8.802;2023-09-19T03:31:15;7.32;;;2.60;;
20880;SDS011;10600;53.096;8.802;2023-09-19T03:32:16;10.70;;;2.72;;
20880;SDS011;10600;53.096;8.802;2023-09-19T03:33:17;4.80;;;2.33;;
20880;SDS011;10600;53.096;8.802;2023-09-19T03:34:18;7.90;;;2.53;;
20880;SDS011;10600;53.096;8.802;2023-09-19T03:35:20;6.97;;;2.83;;
20880;SDS011;10600;53.096;8.802;2023-09-19T03:36:21;7.57;;;2.53;;
20880;SDS011;10600;53.096;8.802;2023-09-19T03:37:22;8.02;;;2.78;;
20880;SDS011;10600;53.096;8.802;2023-09-19T03:38:23;6.50;;;2.53;;
20880;SDS011;10600;53.096;8.802;2023-09-19T03:39:24;10.27;;;3.83;;
20880;SDS011;10600;53.096;8.802;2023-09-19T03:40:25;12.95;;;3.13;;
20880;SDS011;10600;53.096;8.802;2023-09-19T03:41:26;9.32;;;2.55;;
20880;SDS011;10600;53.096;8.802;2023-09-19T03:42:27;12.82;;;3.10;;
20880;SDS011;10600;53.096;8.802;2023-09-19T03:43:28;5.85;;;2.03;;
20880;SDS011;10600;53.096;8.802;2023-09-19T03:44:29;6.50;;;2.85;;
20880;SDS011;10600;53.096;8.802;2023-09-19T03:45:30;10.55;;;2.53;;
20880;SDS011;10600;53.096;8.802;2023-09-19T03:46:31;7.22;;;2.30;;
20880;SDS011;10600;53.096;8.802;2023-09-19T03:47:32;7.60;;;2.85;;
20880;SDS011;10600;53.096;8.802;2023-09-19T03:48:33;10.55;;;2.70;;
20880;SDS011;10600;53.096;8.802;2023-09-19T03:49:34;6.57;;;2.53;;
20880;SDS011;10600;53.096;8.802;2023-09-19T03:50:35;12.45;;;3.97;;
20880;SDS011;10600;53.096;8.802;2023-09-19T03:51:36;10.85;;;2.92;;
20880;SDS011;10600;53.096;8.802;2023-09-19T03:52:37;9.32;;;3.03;;
20880;SDS011;10600;53.096;8.802;2023-09-19T03:53:38;11.43;;;3.08;;
20880;SDS011;10600;53.096;8.802;2023-09-19T03:54:39;9.85;;;2.80;;
20880;SDS011;10600;53.096;8.802;2023-09-19T03:55:41;10.50;;;3.10;;
20880;SDS011;10600;53.096;8.802;2023-09-19T03:56:43;10.35;;;3.10;;
20880;SDS011;10600;53.096;8.802;2023-09-19T03:57:47;11.85;;;2.88;;
20880;SDS011;10600;53.096;8.802;2023-09-19T03:58:50;9.48;;;2.85;;
20880;SDS011;10600;53.096;8.802;2023-09-19T03:59:51;11.18;;;3.47;;
20880;SDS011;10600;53.096;8.802;2023-09-19T04:00:56;10.85;;;2.95;;
20880;SDS011;10600;53.096;8.802;2023-09-19T04:01:57;9.93;;;2.80;;
20880;SDS011;10600;53.096;8.802;2023-09-19T04:02:59;8.98;;;2.65;;
20880;SDS011;10600;53.096;8.802;2023-09-19T04:04:02;13.02;;;3.50;;
20880;SDS011;10600;53.096;8.802;2023-09-19T04:05:08;8.15;;;3.08;;
20880;SDS011;10600;53.096;8.802;2023-09-19T04:06:10;13.35;;;4.07;;
20880;SDS011;10600;53.096;8.802;2023-09-19T04:07:11;10.23;;;3.05;;
20880;SDS011;10600;53.096;8.802;2023-09-19T04:08:12;10.48;;;3.10;;
20880;SDS011;10600;53.096;8.802;2023-09-19T04:09:14;10.85;;;3.13;;
20880;SDS011;10600;53.096;8.802;2023-09-19T04:10:15;11.55;;;2.85;;
20880;SDS011;10600;53.096;8.802;2023-09-19T04:11:16;9.27;;;3.00;;
20880;SDS011;10600;53.096;8.802;2023-09-19T04:12:17;9.52;;;3.63;;
20880;SDS011;10600;53.096;8.802;2023-09-19T04:13:18;8.93;;;2.50;;
20880;SDS011;10600;53.096;8.802;2023-09-19T04:14:19;11.75;;;3.58;;
20880;SDS011;10600;53.096;8.802;2023-09-19T04:15:20;9.18;;;3.00;;
20880;SDS011;10600;53.096;8.802;2023-09-19T04:16:22;13.40;;;4.07;;
20880;SDS011;10600;53.096;8.802;2023-09-19T04:17:23;14.02;;;3.60;;
20880;SDS011;10600;53.096;8.802;2023-09-19T04:18:25;11.68;;;3.63;;
20880;SDS011;10600;53.096;8.802;2023-09-19T04:19:26;15.27;;;3.78;;
20880;SDS011;10600;53.096;8.802;2023-09-19T04:20:27;12.48;;;4.78;;
20880;SDS011;10600;53.096;8.802;2023-09-19T04:21:28;9.75;;;3.05;;
20880;SDS011;10600;53.096;8.802;2023-09-19T04:22:29;13.20;;;4.35;;
20880;SDS011;10600;53.096;8.802;2023-09-19T04:23:30;8.45;;;2.92;;
20880;SDS011;10600;53.096;8.802;2023-09-19T04:24:31;10.63;;;3.28;;
20880;SDS011;10600;53.096;8.802;2023-09-19T04:25:32;11.48;;;2.80;;
20880;SDS011;10600;53.096;8.802;2023-09-19T04:26:33;8.95;;;2.53;;
20880;SDS011;10600;53.096;8.802;2023-09-19T04:27:34;13.35;;;3.70;;
20880;SDS011;10600;53.096;8.802;2023-09-19T04:28:35;11.23;;;3.22;;
20880;SDS011;10600;53.096;8.802;2023-09-19T04:29:38;11.05;;;2.90;;
20880;SDS011;10600;53.096;8.802;2023-09-19T04:30:39;12.98;;;3.90;;
20880;SDS011;10600;53.096;8.802;2023-09-19T04:31:40;8.23;;;2.47;;
20880;SDS011;10600;53.096;8.802;2023-09-19T04:32:43;10.63;;;2.40;;
20880;SDS011;10600;53.096;8.802;2023-09-19T04:33:44;8.73;;;3.08;;
20880;SDS011;10600;53.096;8.802;2023-09-19T04:34:46;12.13;;;2.97;;
20880;SDS011;10600;53.096;8.802;2023-09-19T04:35:50;10.77;;;2.97;;
20880;SDS011;10600;53.096;8.802;2023-09-19T04:36:51;12.07;;;3.22;;
20880;SDS011;10600;53.096;8.802;2023-09-19T04:37:52;8.52;;;3.03;;
20880;SDS011;10600;53.096;8.802;2023-09-19T04:38:54;11.15;;;3.20;;
20880;SDS011;10600;53.096;8.802;2023-09-19T04:39:55;9.48;;;3.40;;
20880;SDS011;10600;53.096;8.802;2023-09-19T04:40:57;8.52;;;2.88;;
20880;SDS011;10600;53.096;8.802;2023-09-19T04:41:59;13.48;;;3.42;;
20880;SDS011;10600;53.096;8.802;2023-09-19T04:43:00;12.05;;;3.53;;
20880;SDS011;10600;53.096;8.802;2023-09-19T04:44:01;9.68;;;3.35;;
20880;SDS011;10600;53.096;8.802;2023-09-19T04:45:03;11.32;;;3.13;;
20880;SDS011;10600;53.096;8.802;2023-09-19T04:46:05;10.35;;;3.15;;
20880;SDS011;10600;53.096;8.802;2023-09-19T04:47:06;15.95;;;4.18;;
20880;SDS011;10600;53.096;8.802;2023-09-19T04:48:07;12.80;;;3.03;;
20880;SDS011;10600;53.096;8.802;2023-09-19T04:49:08;12.25;;;3.53;;
20880;SDS011;10600;53.096;8.802;2023-09-19T04:50:09;10.02;;;3.22;;
20880;SDS011;10600;53.096;8.802;2023-09-19T04:51:11;10.38;;;3.95;;
20880;SDS011;10600;53.096;8.802;2023-09-19T04:52:13;7.95;;;3.50;;
20880;SDS011;10600;53.096;8.802;2023-09-19T04:53:15;10.82;;;3.65;;
20880;SDS011;10600;53.096;8.802;2023-09-19T04:54:17;14.18;;;3.70;;
20880;SDS011;10600;53.096;8.802;2023-09-19T04:55:18;12.25;;;3.72;;
20880;SDS011;10600;53.096;8.802;2023-09-19T04:56:20;13.85;;;3.47;;
20880;SDS011;10600;53.096;8.802;2023-09-19T04:57:23;12.80;;;3.40;;
20880;SDS011;10600;53.096;8.802;2023-09-19T04:58:25;10.52;;;3.50;;
20880;SDS011;10600;53.096;8.802;2023-09-19T04:59:27;9.85;;;3.53;;
20880;SDS011;10600;53.096;8.802;2023-09-19T05:00:30;12.02;;;3.20;;
20880;SDS011;10600;53.096;8.802;2023-09-19T05:01:35;11.63;;;3.72;;
20880;SDS011;10600;53.096;8.802;2023-09-19T05:02:36;11.57;;;3.80;;
20880;SDS011;10600;53.096;8.802;2023-09-19T05:03:37;16.70;;;3.78;;
20880;SDS011;10600;53.096;8.802;2023-09-19T05:04:38;13.32;;;3.90;;
20880;SDS011;10600;53.096;8.802;2023-09-19T05:05:39;12.50;;;3.75;;
20880;SDS011;10600;53.096;8.802;2023-09-19T05:06:41;9.68;;;3.80;;
20880;SDS011;10600;53.096;8.802;2023-09-19T05:07:42;13.02;;;4.57;;
20880;SDS011;10600;53.096;8.802;2023-09-19T05:08:44;12.60;;;3.05;;
20880;SDS011;10600;53.096;8.802;2023-09-19T05:09:45;9.77;;;3.13;;
20880;SDS011;10600;53.096;8.802;2023-09-19T05:10:45;6.93;;;3.08;;
20880;SDS011;10600;53.096;8.802;2023-09-19T05:11:46;12.73;;;3.33;;
20880;SDS011;10600;53.096;8.802;2023-09-19T05:12:48;16.55;;;3.63;;
20880;SDS011;10600;53.096;8.802;2023-09-19T05:13:51;11.93;;;3.40;;
20880;SDS011;10600;53.096;8.802;2023-09-19T05:14:53;9.68;;;3.60;;
20880;SDS011;10600;53.096;8.802;2023-09-19T05:15:54;12.35;;;3.75;;
20880;SDS011;10600;53.096;8.802;2023-09-19T05:16:54;9.75;;;3.28;;
20880;SDS011;10600;53.096;8.802;2023-09-19T05:17:55;11.93;;;3.75;;
20880;SDS011;10600;53.096;8.802;2023-09-19T05:18:57;10.82;;;3.58;;
20880;SDS011;10600;53.096;8.802;2023-09-19T05:20:00;11.15;;;3.72;;
20880;SDS011;10600;53.096;8.802;2023-09-19T05:21:15;12.20;;;3.85;;
20880;SDS011;10600;53.096;8.802;2023-09-19T05:22:16;11.82;;;3.80;;
20880;SDS011;10600;53.096;8.802;2023-09-19T05:23:18;11.32;;;3.90;;
20880;SDS011;10600;53.096;8.802;2023-09-19T05:24:21;13.52;;;4.10;;
20880;SDS011;10600;53.096;8.802;2023-09-19T05:25:23;10.27;;;3.30;;
20880;SDS011;10600;53.096;8.802;2023-09-19T05:26:24;15.05;;;3.95;;
20880;SDS011;10600;53.096;8.802;2023-09-19T05:27:25;15.02;;;4.10;;
20880;SDS011;10600;53.096;8.802;2023-09-19T05:28:27;15.13;;;4.00;;
20880;SDS011;10600;53.096;8.802;2023-09-19T05:29:28;13.70;;;3.90;;
20880;SDS011;10600;53.096;8.802;2023-09-19T05:30:29;10.68;;;3.72;;
20880;SDS011;10600;53.096;8.802;2023-09-19T05:31:30;12.50;;;3.15;;
20880;SDS011;10600;53.096;8.802;2023-09-19T05:32:31;16.92;;;3.78;;
20880;SDS011;10600;53.096;8.802;2023-09-19T05:33:32;12.45;;;4.05;;
20880;SDS011;10600;53.096;8.802;2023-09-19T05:34:33;16.98;;;4.30;;
20880;SDS011;10600;53.096;8.802;2023-09-19T05:35:34;14.40;;;3.53;;
20880;SDS011;10600;53.096;8.802;2023-09-19T05:36:39;16.73;;;3.88;;
20880;SDS011;10600;53.096;8.802;2023-09-19T05:37:40;14.18;;;3.42;;
20880;SDS011;10600;53.096;8.802;2023-09-19T05:38:41;11.73;;;3.60;;
20880;SDS011;10600;53.096;8.802;2023-09-19T05:39:44;14.55;;;3.92;;
20880;SDS011;10600;53.096;8.802;2023-09-19T05:40:45;10.73;;;3.53;;
20880;SDS011;10600;53.096;8.802;2023-09-19T05:41:46;12.95;;;4.28;;
20880;SDS011;10600;53.096;8.802;2023-09-19T05:42:47;11.13;;;3.63;;
20880;SDS011;10600;53.096;8.802;2023-09-19T05:43:50;11.55;;;3.05;;
20880;SDS011;10600;53.096;8.802;2023-09-19T05:44:51;13.75;;;3.88;;
20880;SDS011;10600;53.096;8.802;2023-09-19T05:45:52;14.73;;;3.58;;
20880;SDS011;10600;53.096;8.802;2023-09-19T05:46:56;13.73;;;3.58;;
20880;SDS011;10600;53.096;8.802;2023-09-19T05:48:05;13.55;;;3.60;;
20880;SDS011;10600;53.096;8.802;2023-09-19T05:49:07;12.15;;;3.97;;
20880;SDS011;10600;53.096;8.802;2023-09-19T05:50:09;12.35;;;3.20;;
20880;SDS011;10600;53.096;8.802;2023-09-19T05:51:10;11.15;;;2.97;;
20880;SDS011;10600;53.096;8.802;2023-09-19T05:52:11;11.02;;;3.38;;
20880;SDS011;10600;53.096;8.802;2023-09-19T05:53:12;11.90;;;3.03;;
20880;SDS011;10600;53.096;8.802;2023-09-19T05:54:14;12.32;;;3.15;;
20880;SDS011;10600;53.096;8.802;2023-09-19T05:55:15;10.10;;;3.30;;
20880;SDS011;10600;53.096;8.802;2023-09-19T05:56:16;14.85;;;4.45;;
20880;SDS011;10600;53.096;8.802;2023-09-19T05:57:18;12.75;;;4.00;;
20880;SDS011;10600;53.096;8.802;2023-09-19T05:58:19;12.68;;;3.70;;
20880;SDS011;10600;53.096;8.802;2023-09-19T05:59:20;18.42;;;4.38;;
20880;SDS011;10600;53.096;8.802;2023-09-19T06:00:23;11.45;;;3.85;;
20880;SDS011;10600;53.096;8.802;2023-09-19T06:01:24;18.83;;;4.07;;
20880;SDS011;10600;53.096;8.802;2023-09-19T06:02:25;16.30;;;3.67;;
20880;SDS011;10600;53.096;8.802;2023-09-19T06:03:28;9.25;;;3.50;;
20880;SDS011;10600;53.096;8.802;2023-09-19T06:04:31;15.52;;;3.95;;
20880;SDS011;10600;53.096;8.802;2023-09-19T06:05:32;11.68;;;3.53;;
20880;SDS011;10600;53.096;8.802;2023-09-19T06:06:33;10.55;;;3.60;;
20880;SDS011;10600;53.096;8.802;2023-09-19T06:07:39;16.48;;;3.53;;
20880;SDS011;10600;53.096;8.802;2023-09-19T06:08:39;11.93;;;3.35;;
20880;SDS011;10600;53.096;8.802;2023-09-19T06:09:40;12.82;;;4.15;;
20880;SDS011;10600;53.096;8.802;2023-09-19T06:10:41;15.00;;;4.13;;
20880;SDS011;10600;53.096;8.802;2023-09-19T06:11:42;11.85;;;3.38;;
20880;SDS011;10600;53.096;8.802;2023-09-19T06:12:44;12.23;;;3.38;;
20880;SDS011;10600;53.096;8.802;2023-09-19T06:13:45;20.23;;;3.47;;
20880;SDS011;10600;53.096;8.802;2023-09-19T06:14:47;15.88;;;4.15;;
20880;SDS011;10600;53.096;8.802;2023-09-19T06:15:49;15.38;;;4.05;;
20880;SDS011;10600;53.096;8.802;2023-09-19T06:16:50;12.63;;;3.75;;
20880;SDS011;10600;53.096;8.802;2023-09-19T06:17:54;12.82;;;3.28;;
20880;SDS011;10600;53.096;8.802;2023-09-19T06:18:55;15.63;;;3.85;;
20880;SDS011;10600;53.096;8.802;2023-09-19T06:19:56;14.50;;;3.47;;
20880;SDS011;10600;53.096;8.802;2023-09-19T06:20:57;14.63;;;3.72;;
20880;SDS011;10600;53.096;8.802;2023-09-19T06:21:59;14.60;;;4.53;;
20880;SDS011;10600;53.096;8.802;2023-09-19T06:23:00;13.23;;;4.22;;
20880;SDS011;10600;53.096;8.802;2023-09-19T06:24:02;10.27;;;3.90;;